Aeroporto :
LOGIN :

Iscrizione | Disclaimer

   EN    FR    IT 

 










Sommario :    VFR   VFR Marginale   IFR   IFR Intensivo   IFR Molto Intensivo
Visibilità : 
Base nubi : 
>= 8 km
>= 3000ft
5 / 8 km
1000 / 3000 ft
1500m / 5 km
500 / 1000 ft
800 / 1500m
200 / 500 ft
< 800m
< 200 ft
Simboli :   Temporali  Nebbia  Neve Forte  Precipitazioni Forti  Vento > 20 kt
SIGMETs :   Varie  Temporali  Ghiacco  Turbolenza  Onda orograficha  Ceneri Vulcaniche






- Altitudine del aeroporto : 1247 ft
- Codice IATA : PRG


LKPR - Praha Ruzyne

ULTIMO METAR :
  • 240400Z VRB02KT 9999 OVC012 M02/M04 Q1024 NOSIG

METARs OBSOLETI :
  • 240330Z 14002KT 9999 BKN012 M03/M04 Q1024 BECMG 3000 BR BKN008
  • 240300Z 10004KT 9999 BKN013 M03/M04 Q1025 BECMG 3000 BR BKN008
  • 240230Z 00000KT 8000 BKN013 M04/M05 Q1025 BECMG 3000 BR BKN008
  • 240209Z VRB01KT 8000 BKN014 M04/M05 Q1025 RMK REG QNH 1021
  • 240200Z VRB02KT 9000 BKN015 M05/M06 Q1025 BECMG 3000 BR BKN008
  • 240140Z 11003KT 9000 MIFG BKN016 M04/M05 Q1025 RMK REG QNH 1021
  • 240130Z 10004KT 9000 MIFG SCT017 M04/M05 Q1026 BECMG 3000 BR BKN008

TAF TAF LKPR
Valido dal 24 a 00 ore il 25 a 06 ore UTC


232300Z 2400/2506 15004KT 9999 SCT014
BECMG 2400/2403 3000 BR BKN008
TEMPO 2403/2410 1200 BR BKN003
BECMG 2410/2413 21004KT CAVOK
BECMG 2503/2506 VRB02KT
TEMPO 2503/2506 3000 BR BKN007



MetMap, La meteo Aeronautica in un colpo d'occhio ! - Copyright ORBIFLY Dicembre 2007 - Disclaimer

ORBIFLY MET'MAP TEAM :

Programmazione e sviluppo : Alexandra Zaïnal
Concezione : Baudouin d'Aumeries
Aiuto per la programmazione : Marc-Olivier Méhu
Supporto tecnico e logistico : Manuel Goepfert
Aiuto per la traduzione : Arnaldo La Scala

Contatto : metmap@orbifly.com




FONTI E CREDITI :

   NOAA